createdAt,value
2018-12-17T00:00:44.706Z,124.07
2018-12-17T00:01:50.464Z,145.40
2018-12-17T00:02:55.985Z,104.40
2018-12-17T00:04:01.491Z,120.15
2018-12-17T00:05:07.004Z,130.05
2018-12-17T00:06:12.674Z,125.80
2018-12-17T00:07:18.222Z,137.18
2018-12-17T00:08:23.749Z,123.38
2018-12-17T00:09:29.427Z,140.62
2018-12-17T00:10:34.928Z,150.60
2018-12-17T00:11:40.586Z,141.80
2018-12-17T00:12:46.011Z,143.80
2018-12-17T00:13:51.821Z,138.90
2018-12-17T00:14:57.329Z,139.35
2018-12-17T00:16:03.020Z,145.90
2018-12-17T00:17:08.504Z,151.07
2018-12-17T00:18:14.055Z,158.75
2018-12-17T00:19:19.562Z,139.40
2018-12-17T00:20:25.394Z,174.82
2018-12-17T00:21:30.901Z,164.03
2018-12-17T00:22:36.511Z,122.40
2018-12-17T00:23:42.604Z,166.80
2018-12-17T00:24:48.083Z,163.55
2018-12-17T00:25:53.861Z,161.60
2018-12-17T00:26:59.413Z,132.82
2018-12-17T00:28:08.125Z,157.00
2018-12-17T00:29:12.297Z,162.72
2018-12-17T00:30:17.834Z,158.35
2018-12-17T00:31:23.476Z,154.85
2018-12-17T00:32:29.203Z,177.20
2018-12-17T00:33:34.802Z,172.13
2018-12-17T00:34:40.434Z,177.07
2018-12-17T00:35:45.867Z,171.80
2018-12-17T00:36:51.360Z,192.82
2018-12-17T00:37:56.837Z,181.63
2018-12-17T00:39:02.364Z,183.83
2018-12-17T00:41:25.271Z,184.40
2018-12-17T00:42:31.074Z,170.32
2018-12-17T00:43:36.747Z,191.53
2018-12-17T00:44:42.172Z,185.30
2018-12-17T00:45:47.720Z,162.50
2018-12-17T00:46:53.350Z,206.70
2018-12-17T00:47:58.795Z,185.50
2018-12-17T00:49:04.235Z,186.12
2018-12-17T00:50:09.726Z,230.72
2018-12-17T00:51:15.151Z,196.47
2018-12-17T00:52:20.558Z,237.65
2018-12-17T00:53:25.994Z,221.22
2018-12-17T00:54:31.441Z,188.07
2018-12-17T00:55:36.880Z,241.63
2018-12-17T00:56:42.255Z,213.43
2018-12-17T00:57:47.696Z,235.10
2018-12-17T00:58:53.187Z,225.95
2018-12-17T00:59:58.598Z,236.45
2018-12-17T01:01:04.022Z,245.60
2018-12-17T01:02:09.467Z,228.65
2018-12-17T01:03:14.906Z,249.37
2018-12-17T01:04:20.311Z,222.80
2018-12-17T01:05:25.698Z,242.13
2018-12-17T01:06:31.109Z,228.32
2018-12-17T01:07:36.666Z,247.90
2018-12-17T01:08:42.129Z,234.62
2018-12-17T01:09:47.514Z,231.60
2018-12-17T01:10:52.955Z,256.35
2018-12-17T01:11:58.371Z,266.77
2018-12-17T01:13:03.794Z,226.98
2018-12-17T01:14:09.293Z,259.10
2018-12-17T01:15:14.707Z,234.07
2018-12-17T01:16:20.464Z,242.93
2018-12-17T01:17:25.870Z,234.45
2018-12-17T01:18:31.254Z,272.70
2018-12-17T01:19:36.682Z,256.55
2018-12-17T01:20:42.175Z,241.50
2018-12-17T01:21:48.049Z,281.47
2018-12-17T01:22:53.424Z,246.82
2018-12-17T01:23:58.864Z,249.15
2018-12-17T01:25:04.627Z,235.32
2018-12-17T01:26:10.232Z,244.93
2018-12-17T01:27:15.698Z,257.02
2018-12-17T01:28:22.339Z,219.43
2018-12-17T01:29:28.073Z,248.20
2018-12-17T01:30:34.322Z,234.60
2018-12-17T01:31:40.234Z,250.70
2018-12-17T01:32:45.803Z,257.12
2018-12-17T01:33:51.232Z,229.05
2018-12-17T01:34:57.438Z,226.00
2018-12-17T01:36:02.841Z,244.13
2018-12-17T01:37:08.242Z,254.57
2018-12-17T01:38:13.768Z,236.77
2018-12-17T01:39:19.190Z,256.00
2018-12-17T01:40:24.581Z,247.37
2018-12-17T01:41:30.027Z,231.57
2018-12-17T01:42:35.489Z,229.93
2018-12-17T01:43:41.222Z,247.05
2018-12-17T01:44:46.651Z,237.23
2018-12-17T01:45:52.047Z,201.70
2018-12-17T01:46:57.459Z,217.40
2018-12-17T01:48:02.886Z,242.97
2018-12-17T01:49:08.518Z,214.78
2018-12-17T01:50:13.983Z,212.60
2018-12-17T01:51:19.559Z,252.50
2018-12-17T01:52:24.905Z,225.72
2018-12-17T01:53:30.350Z,215.28
2018-12-17T01:54:35.817Z,232.73
2018-12-17T01:55:41.318Z,237.27
2018-12-17T01:56:46.691Z,247.55
2018-12-17T01:57:52.113Z,228.77
2018-12-17T01:58:57.597Z,222.73
2018-12-17T02:00:03.156Z,213.30
2018-12-17T02:01:08.866Z,202.30
2018-12-17T02:02:14.263Z,226.30
2018-12-17T02:03:19.722Z,196.10
2018-12-17T02:04:25.323Z,231.00
2018-12-17T02:05:30.883Z,215.87
2018-12-17T02:06:36.415Z,216.80
2018-12-17T02:07:41.850Z,216.68
2018-12-17T02:08:47.514Z,209.30
2018-12-17T02:09:52.992Z,217.68
2018-12-17T02:10:58.447Z,230.80
2018-12-17T02:12:03.998Z,204.83
2018-12-17T02:13:09.392Z,211.33
2018-12-17T02:14:14.851Z,202.03
2018-12-17T02:15:20.407Z,219.07
2018-12-17T02:16:25.849Z,213.87
2018-12-17T02:17:31.301Z,183.45
2018-12-17T02:18:36.742Z,211.27
2018-12-17T02:19:42.228Z,199.80
2018-12-17T02:20:47.818Z,180.93
2018-12-17T02:21:53.240Z,192.85
2018-12-17T02:22:58.648Z,167.13
2018-12-17T02:24:04.204Z,170.07
2018-12-17T02:25:09.618Z,195.10
2018-12-17T02:26:15.083Z,153.68
2018-12-17T02:27:20.507Z,175.10
2018-12-17T02:28:25.896Z,177.80
2018-12-17T02:29:31.306Z,169.62
2018-12-17T02:30:36.775Z,177.05
2018-12-17T02:31:42.296Z,168.05
2018-12-17T02:32:47.967Z,162.67
2018-12-17T02:33:53.424Z,191.10
2018-12-17T02:34:58.861Z,160.75
2018-12-17T02:36:04.321Z,167.62
2018-12-17T02:37:09.885Z,168.13
2018-12-17T02:38:15.295Z,162.92
2018-12-17T02:39:20.704Z,165.62
2018-12-17T02:40:26.156Z,173.45
2018-12-17T02:41:31.566Z,175.47
2018-12-17T02:42:36.985Z,180.32
2018-12-17T02:43:42.416Z,175.40
2018-12-17T02:44:47.888Z,194.45
2018-12-17T02:45:53.287Z,176.12
2018-12-17T02:46:58.685Z,165.20
2018-12-17T02:48:04.224Z,173.72
2018-12-17T02:49:09.651Z,143.35
2018-12-17T02:50:15.051Z,152.93
2018-12-17T02:51:20.458Z,172.87
2018-12-17T02:52:25.909Z,172.15
2018-12-17T02:53:31.354Z,136.90
2018-12-17T02:54:36.911Z,175.40
2018-12-17T02:55:42.337Z,190.30
2018-12-17T02:56:47.866Z,190.97
2018-12-17T02:57:53.316Z,157.75
2018-12-17T02:58:58.757Z,154.15
2018-12-17T03:00:05.394Z,156.90
2018-12-17T03:01:10.793Z,198.85
2018-12-17T03:02:16.211Z,167.37
2018-12-17T03:03:21.735Z,186.18
2018-12-17T03:04:27.266Z,173.37
2018-12-17T03:05:32.820Z,198.72
2018-12-17T03:06:38.260Z,191.45
2018-12-17T03:07:43.878Z,172.47
2018-12-17T03:08:49.357Z,172.50
2018-12-17T03:09:54.785Z,176.18
2018-12-17T03:11:00.413Z,192.70
2018-12-17T03:12:06.135Z,162.95
2018-12-17T03:13:11.686Z,172.62
2018-12-17T03:14:17.262Z,191.67
2018-12-17T03:15:22.760Z,199.17
2018-12-17T03:16:28.198Z,189.13
2018-12-17T03:17:33.588Z,197.35
2018-12-17T03:18:39.014Z,172.22
2018-12-17T03:19:44.751Z,176.70
2018-12-17T03:20:50.170Z,209.07
2018-12-17T03:21:55.597Z,174.40
2018-12-17T03:23:01.019Z,145.38
2018-12-17T03:24:06.462Z,173.60
2018-12-17T03:25:11.948Z,174.02
2018-12-17T03:26:17.347Z,185.50
2018-12-17T03:27:22.774Z,183.15
2018-12-17T03:28:28.335Z,182.32
2018-12-17T03:29:33.726Z,172.78
2018-12-17T03:30:39.159Z,150.03
2018-12-17T03:31:45.518Z,178.68
2018-12-17T03:32:51.104Z,161.28
2018-12-17T03:33:56.576Z,171.55
2018-12-17T03:35:02.134Z,184.33
2018-12-17T03:36:07.581Z,178.23
2018-12-17T03:37:13.056Z,181.80
2018-12-17T03:38:18.471Z,163.10
2018-12-17T03:39:23.990Z,157.88
2018-12-17T03:40:29.536Z,163.70
2018-12-17T03:41:34.964Z,169.32
2018-12-17T03:42:40.366Z,164.50
2018-12-17T03:43:45.817Z,154.23
2018-12-17T03:44:51.256Z,169.35
2018-12-17T03:45:56.727Z,149.42
2018-12-17T03:47:02.287Z,156.45
2018-12-17T03:48:08.298Z,147.20
2018-12-17T03:49:13.878Z,157.85
2018-12-17T03:50:19.545Z,160.20
2018-12-17T03:51:24.972Z,163.95
2018-12-17T03:52:30.360Z,188.07
2018-12-17T03:53:35.762Z,158.52
2018-12-17T03:54:41.224Z,167.70
2018-12-17T03:55:46.699Z,152.87
2018-12-17T03:56:52.257Z,169.62
2018-12-17T03:57:57.691Z,156.35
2018-12-17T03:59:03.268Z,150.23
2018-12-17T04:00:09.448Z,170.07
2018-12-17T04:01:14.866Z,170.25
2018-12-17T04:02:20.287Z,156.05
2018-12-17T04:03:25.726Z,150.87
2018-12-17T04:04:31.216Z,139.75
2018-12-17T04:05:36.746Z,153.33
2018-12-17T04:06:42.180Z,160.43
2018-12-17T04:07:47.618Z,135.25
2018-12-17T04:08:53.041Z,148.50
2018-12-17T04:09:58.873Z,153.23
2018-12-17T04:11:05.302Z,153.63
2018-12-17T04:12:10.738Z,156.93
2018-12-17T04:13:16.177Z,165.25
2018-12-17T04:14:21.667Z,159.15
2018-12-17T04:15:27.755Z,153.35
2018-12-17T04:16:33.255Z,136.92
2018-12-17T04:17:38.713Z,157.15
2018-12-17T04:18:44.087Z,133.72
2018-12-17T04:19:49.531Z,144.07
2018-12-17T04:20:55.224Z,144.53
2018-12-17T04:22:00.718Z,146.98
2018-12-17T04:23:06.147Z,157.57
2018-12-17T04:24:11.620Z,182.85
2018-12-17T04:25:17.086Z,161.97
2018-12-17T04:26:22.640Z,170.43
2018-12-17T04:27:28.116Z,160.45
2018-12-17T04:28:33.604Z,149.12
2018-12-17T04:29:39.039Z,151.43
2018-12-17T04:30:44.441Z,156.55
2018-12-17T04:31:49.979Z,164.50
2018-12-17T04:32:55.402Z,150.00
2018-12-17T04:34:00.858Z,148.13
2018-12-17T04:35:06.554Z,151.00
2018-12-17T04:36:12.462Z,166.62
2018-12-17T04:37:17.853Z,169.80
2018-12-17T04:38:23.288Z,155.90
2018-12-17T04:39:28.785Z,157.27
2018-12-17T04:40:34.199Z,159.25
2018-12-17T04:41:39.627Z,184.10
2018-12-17T04:42:45.076Z,167.37
2018-12-17T04:43:50.831Z,162.65
2018-12-17T04:44:56.295Z,158.07
2018-12-17T04:46:01.876Z,174.87
2018-12-17T04:47:07.332Z,161.00
2018-12-17T04:48:12.749Z,171.57
2018-12-17T04:49:18.186Z,151.15
2018-12-17T04:50:23.641Z,148.53
2018-12-17T04:51:29.209Z,181.90
2018-12-17T04:52:34.677Z,157.78
2018-12-17T04:53:40.194Z,168.97
2018-12-17T04:54:45.652Z,164.25
2018-12-17T04:55:51.252Z,146.35
2018-12-17T04:56:56.742Z,143.68
2018-12-17T04:58:02.560Z,157.20
2018-12-17T04:59:14.357Z,144.15
2018-12-17T05:00:15.641Z,161.60
2018-12-17T05:01:21.077Z,157.15
2018-12-17T05:02:26.525Z,139.25
2018-12-17T05:03:32.207Z,156.82
2018-12-17T05:04:37.682Z,149.50
2018-12-17T05:05:43.084Z,150.93
2018-12-17T05:06:48.624Z,166.50
2018-12-17T05:07:54.299Z,151.63
2018-12-17T05:08:59.890Z,162.22
2018-12-17T05:10:06.663Z,150.10
2018-12-17T05:11:12.263Z,167.30
2018-12-17T05:12:17.666Z,136.20
2018-12-17T05:13:23.138Z,176.90
2018-12-17T05:14:28.724Z,160.00
2018-12-17T05:15:34.618Z,159.73
2018-12-17T05:16:40.015Z,167.85
2018-12-17T05:17:45.491Z,161.43
2018-12-17T05:18:51.159Z,154.93
2018-12-17T05:19:56.558Z,137.07
2018-12-17T05:21:02.003Z,134.87
2018-12-17T05:22:07.500Z,154.27
2018-12-17T05:23:12.937Z,132.30
2018-12-17T05:24:18.378Z,172.77
2018-12-17T05:25:23.892Z,128.93
2018-12-17T05:26:29.526Z,143.57
2018-12-17T05:27:35.128Z,137.45
2018-12-17T05:28:40.673Z,157.27
2018-12-17T05:29:46.211Z,125.30
2018-12-17T05:30:51.672Z,142.45
2018-12-17T05:31:57.296Z,129.97
2018-12-17T05:33:03.048Z,156.73
2018-12-17T05:34:08.451Z,128.72
2018-12-17T05:35:14.086Z,127.63
2018-12-17T05:36:19.543Z,150.37
2018-12-17T05:37:25.008Z,131.47
2018-12-17T05:38:30.633Z,135.80
2018-12-17T05:39:36.096Z,134.33
2018-12-17T05:40:41.519Z,145.57
2018-12-17T05:41:47.035Z,126.07
2018-12-17T05:42:52.500Z,130.65
2018-12-17T05:43:58.032Z,138.50
2018-12-17T05:45:03.683Z,149.80
2018-12-17T05:46:09.187Z,124.45
2018-12-17T05:47:14.834Z,134.90
2018-12-17T05:48:20.231Z,133.20
2018-12-17T05:49:25.727Z,131.30
2018-12-17T05:50:31.193Z,130.97
2018-12-17T05:51:36.729Z,136.28
2018-12-17T05:52:42.142Z,120.77
2018-12-17T05:53:47.647Z,132.53
2018-12-17T05:54:53.154Z,146.80
2018-12-17T05:55:58.959Z,159.70
2018-12-17T05:57:04.456Z,145.75
2018-12-17T05:58:10.063Z,140.83
2018-12-17T05:59:15.607Z,130.82
2018-12-17T06:00:22.647Z,154.10
2018-12-17T06:01:28.183Z,164.00
2018-12-17T06:02:33.546Z,131.93
2018-12-17T06:03:39.038Z,132.82
2018-12-17T06:04:44.532Z,140.13
2018-12-17T06:05:49.948Z,131.90
2018-12-17T06:06:55.473Z,138.50
2018-12-17T06:08:01.021Z,156.05
2018-12-17T06:09:11.655Z,130.70
2018-12-17T06:10:17.163Z,170.12
2018-12-17T06:11:22.631Z,132.70
2018-12-17T06:12:28.123Z,129.05
2018-12-17T06:13:33.726Z,135.30
2018-12-17T06:14:39.427Z,120.82
2018-12-17T06:15:44.903Z,121.30
2018-12-17T06:16:50.363Z,150.60
2018-12-17T06:17:55.774Z,144.65
2018-12-17T06:19:01.307Z,140.05
2018-12-17T06:20:07.375Z,130.85
2018-12-17T06:21:12.849Z,137.25
2018-12-17T06:22:18.630Z,105.85
2018-12-17T06:23:24.286Z,115.97
2018-12-17T06:24:29.828Z,136.45
2018-12-17T06:25:35.695Z,131.43
2018-12-17T06:26:41.135Z,135.43
2018-12-17T06:27:46.871Z,142.03
2018-12-17T06:28:52.342Z,131.67
2018-12-17T06:29:57.827Z,112.62
2018-12-17T06:31:03.585Z,129.87
2018-12-17T06:32:09.048Z,135.47
2018-12-17T06:33:15.750Z,128.87
2018-12-17T06:34:21.581Z,118.70
2018-12-17T06:35:27.275Z,129.70
2018-12-17T06:36:32.987Z,128.50
2018-12-17T06:37:38.588Z,118.70
2018-12-17T06:38:44.239Z,137.62
2018-12-17T06:39:49.879Z,123.43
2018-12-17T06:40:55.466Z,122.07
2018-12-17T06:42:00.862Z,109.00
2018-12-17T06:43:06.410Z,105.97
2018-12-17T06:44:12.227Z,115.17
2018-12-17T06:45:17.666Z,118.17
2018-12-17T06:46:23.098Z,103.13
2018-12-17T06:47:28.703Z,100.20
2018-12-17T06:48:34.194Z,117.40
2018-12-17T06:49:40.050Z,115.42
2018-12-17T06:50:45.586Z,103.50
2018-12-17T06:51:51.653Z,104.43
2018-12-17T06:52:57.106Z,103.20
2018-12-17T06:54:02.637Z,103.83
2018-12-17T06:55:08.557Z,97.00
2018-12-17T06:56:13.989Z,76.57
2018-12-17T06:57:19.533Z,90.38
2018-12-17T06:58:25.487Z,81.60
2018-12-17T06:59:31.422Z,87.37
2018-12-17T07:00:37.120Z,97.72
2018-12-17T07:01:42.695Z,83.17
2018-12-17T07:02:48.196Z,87.07
2018-12-17T07:03:53.713Z,85.10
2018-12-17T07:04:59.140Z,102.90
2018-12-17T07:06:04.664Z,72.77
2018-12-17T07:07:10.178Z,85.90
2018-12-17T07:08:18.887Z,81.22
2018-12-17T07:09:25.137Z,75.12
2018-12-17T07:10:30.801Z,78.25
2018-12-17T07:11:36.332Z,80.70
2018-12-17T07:12:41.855Z,63.53
2018-12-17T07:13:47.354Z,63.28
2018-12-17T07:14:52.949Z,66.37
2018-12-17T07:15:58.671Z,57.08
2018-12-17T07:17:04.423Z,69.20
2018-12-17T07:18:09.958Z,55.78
2018-12-17T07:19:15.444Z,67.37
2018-12-17T07:20:20.989Z,67.47
2018-12-17T07:21:26.487Z,58.87
2018-12-17T07:22:31.970Z,62.93
2018-12-17T07:23:37.399Z,55.97
2018-12-17T07:24:43.063Z,54.67
2018-12-17T07:25:48.551Z,48.83
2018-12-17T07:26:53.980Z,57.65
2018-12-17T07:27:59.456Z,62.30
2018-12-17T07:29:04.990Z,47.38
2018-12-17T07:30:10.919Z,47.17
2018-12-17T07:31:16.371Z,45.85
2018-12-17T07:32:21.803Z,50.50
2018-12-17T07:33:27.611Z,53.80
2018-12-17T07:34:33.359Z,42.50
2018-12-17T07:35:38.880Z,49.27
2018-12-17T07:36:44.386Z,49.25
2018-12-17T07:37:49.880Z,41.13
2018-12-17T07:38:55.274Z,37.50
2018-12-17T07:40:01.078Z,52.00
2018-12-17T07:41:06.549Z,47.53
2018-12-17T07:42:12.019Z,46.13
2018-12-17T07:43:17.923Z,45.50
2018-12-17T07:44:23.629Z,48.42
2018-12-17T07:45:29.251Z,44.27
2018-12-17T07:46:35.291Z,37.03
2018-12-17T07:47:40.779Z,46.48
2018-12-17T07:48:46.299Z,41.20
2018-12-17T07:49:51.771Z,48.37
2018-12-17T07:50:57.257Z,37.83
2018-12-17T07:52:02.808Z,41.73
2018-12-17T07:53:08.367Z,43.03
2018-12-17T07:54:13.927Z,49.53
2018-12-17T07:55:19.815Z,42.90
2018-12-17T07:56:25.274Z,48.83
2018-12-17T07:57:30.828Z,44.67
2018-12-17T07:58:36.447Z,48.83
2018-12-17T07:59:42.314Z,40.23
2018-12-17T08:00:47.767Z,46.73
2018-12-17T08:01:53.191Z,47.90
2018-12-17T08:02:58.685Z,47.00
2018-12-17T08:04:04.186Z,39.53
2018-12-17T08:05:09.825Z,48.70
2018-12-17T08:06:15.263Z,42.40
2018-12-17T08:07:20.707Z,35.15
2018-12-17T08:08:26.239Z,36.85
2018-12-17T08:09:31.786Z,41.60
2018-12-17T08:10:37.246Z,38.58
2018-12-17T08:11:42.660Z,34.27
2018-12-17T08:12:48.108Z,49.38
2018-12-17T08:13:53.684Z,37.08
2018-12-17T08:14:59.435Z,43.03
2018-12-17T08:16:04.987Z,36.80
2018-12-17T08:17:10.599Z,40.23
2018-12-17T08:18:24.383Z,37.70
2018-12-17T08:19:29.839Z,46.02
2018-12-17T08:20:35.336Z,38.73
2018-12-17T08:21:40.860Z,44.45
2018-12-17T08:22:46.387Z,39.33
2018-12-17T08:23:51.833Z,41.43
2018-12-17T08:24:57.416Z,44.30
2018-12-17T08:26:02.936Z,40.85
2018-12-17T08:27:08.480Z,41.85
2018-12-17T08:28:13.980Z,35.33
2018-12-17T08:29:19.414Z,37.70
2018-12-17T08:30:24.846Z,41.10
2018-12-17T08:31:30.287Z,41.95
2018-12-17T08:32:35.862Z,47.15
2018-12-17T08:33:41.496Z,37.25
2018-12-17T08:34:47.325Z,39.65
2018-12-17T08:35:52.862Z,45.67
2018-12-17T08:36:58.428Z,33.97
2018-12-17T08:38:03.929Z,40.60
2018-12-17T08:39:09.826Z,36.00
2018-12-17T08:40:15.417Z,35.27
2018-12-17T08:41:20.878Z,36.03
2018-12-17T08:42:26.375Z,31.20
2018-12-17T08:43:31.913Z,34.90
2018-12-17T08:44:37.302Z,37.97
2018-12-17T08:45:42.799Z,41.23
2018-12-17T08:46:48.218Z,39.30
2018-12-17T08:47:54.088Z,34.30
2018-12-17T08:48:59.657Z,40.00
2018-12-17T08:50:05.946Z,38.33
2018-12-17T08:51:11.388Z,39.33
2018-12-17T08:52:17.024Z,35.80
2018-12-17T08:53:22.459Z,36.20
2018-12-17T08:54:28.040Z,40.60
2018-12-17T08:55:33.675Z,36.80
2018-12-17T08:56:39.207Z,35.70
2018-12-17T08:57:44.874Z,38.80
2018-12-17T08:58:50.601Z,45.20
2018-12-17T08:59:56.277Z,37.80
2018-12-17T09:01:01.948Z,37.63
2018-12-17T09:02:07.664Z,39.85
2018-12-17T09:03:13.226Z,38.13
2018-12-17T09:04:18.742Z,38.92
2018-12-17T09:05:24.451Z,48.10
2018-12-17T09:06:29.906Z,36.90
2018-12-17T09:07:35.453Z,38.83
2018-12-17T09:08:41.011Z,38.67
2018-12-17T09:09:46.395Z,44.73
2018-12-17T09:10:52.093Z,45.83
2018-12-17T09:11:57.701Z,48.77
2018-12-17T09:13:03.140Z,37.78
2018-12-17T09:14:08.706Z,37.30
2018-12-17T09:15:14.519Z,44.03
2018-12-17T09:16:20.011Z,40.47
2018-12-17T09:17:25.536Z,47.10
2018-12-17T09:18:30.955Z,39.23
2018-12-17T09:19:36.392Z,42.00
2018-12-17T09:20:41.826Z,44.13
2018-12-17T09:21:47.274Z,38.73
2018-12-17T09:22:53.055Z,40.47
2018-12-17T09:23:58.471Z,40.97
2018-12-17T09:25:04.576Z,37.90
2018-12-17T09:26:10.073Z,38.70
2018-12-17T09:27:15.876Z,43.87
2018-12-17T09:28:21.373Z,36.50
2018-12-17T09:29:27.121Z,37.03
2018-12-17T09:30:32.767Z,38.93
2018-12-17T09:31:38.211Z,37.45
2018-12-17T09:32:43.657Z,36.33
2018-12-17T09:33:49.050Z,43.43
2018-12-17T09:34:54.704Z,36.00
2018-12-17T09:36:02.281Z,35.70
2018-12-17T09:37:07.760Z,34.65
2018-12-17T09:38:13.175Z,39.53
2018-12-17T09:39:18.684Z,38.20
2018-12-17T09:40:24.284Z,37.63
2018-12-17T09:41:30.206Z,36.03
2018-12-17T09:42:35.723Z,51.17
2018-12-17T09:43:41.310Z,35.92
2018-12-17T09:44:46.710Z,42.80
2018-12-17T09:45:52.558Z,41.83
2018-12-17T09:46:58.096Z,33.15
2018-12-17T09:48:03.693Z,41.53
2018-12-17T09:49:09.323Z,37.83
2018-12-17T09:50:16.628Z,40.83
2018-12-17T09:51:22.514Z,47.53
2018-12-17T09:52:28.049Z,40.57
2018-12-17T09:53:33.650Z,42.53
2018-12-17T09:54:39.127Z,37.13
2018-12-17T09:55:44.936Z,48.20
2018-12-17T09:56:50.434Z,45.80
2018-12-17T09:57:56.303Z,40.85
2018-12-17T09:59:01.825Z,40.33
2018-12-17T10:00:08.467Z,47.30
2018-12-17T10:01:14.015Z,45.10
2018-12-17T10:02:19.449Z,35.95
2018-12-17T10:03:25.139Z,43.90
2018-12-17T10:04:30.679Z,43.25
2018-12-17T10:05:36.306Z,41.40
2018-12-17T10:06:41.807Z,40.90
2018-12-17T10:07:47.463Z,45.23
2018-12-17T10:08:52.986Z,41.98
2018-12-17T10:09:58.511Z,39.93
2018-12-17T10:11:04.064Z,44.27
2018-12-17T10:12:09.572Z,46.63
2018-12-17T10:13:15.224Z,37.57
2018-12-17T10:14:20.988Z,45.00
2018-12-17T10:15:26.555Z,43.80
2018-12-17T10:16:32.081Z,46.33
2018-12-17T10:17:37.499Z,39.00
2018-12-17T10:18:43.353Z,39.43
2018-12-17T10:19:48.869Z,47.70
2018-12-17T10:20:54.376Z,39.53
2018-12-17T10:21:59.853Z,41.30
2018-12-17T10:23:05.302Z,37.03
2018-12-17T10:24:10.875Z,36.83
2018-12-17T10:25:16.311Z,39.93
2018-12-17T10:26:22.290Z,37.83
2018-12-17T10:27:27.992Z,37.20
2018-12-17T10:28:33.426Z,38.80
2018-12-17T10:29:38.956Z,41.70
2018-12-17T10:30:44.623Z,41.50
2018-12-17T10:31:50.063Z,38.50
2018-12-17T10:32:55.499Z,37.93
2018-12-17T10:34:00.952Z,37.20
2018-12-17T10:35:07.068Z,41.67
2018-12-17T10:36:12.626Z,45.53
2018-12-17T10:37:18.063Z,40.93
2018-12-17T10:38:23.542Z,44.80
2018-12-17T10:39:29.039Z,43.87
2018-12-17T10:40:38.825Z,39.33
2018-12-17T10:41:44.359Z,46.93
2018-12-17T10:42:49.894Z,41.02
2018-12-17T10:43:55.314Z,43.37
2018-12-17T10:45:01.006Z,42.43
2018-12-17T10:46:06.552Z,40.90
2018-12-17T10:47:12.071Z,43.07
2018-12-17T10:48:17.925Z,45.60
2018-12-17T10:49:23.369Z,43.53
2018-12-17T10:50:29.473Z,47.07
2018-12-17T10:51:35.276Z,38.63
2018-12-17T10:52:40.790Z,39.80
2018-12-17T10:53:46.542Z,42.80
2018-12-17T10:54:52.170Z,39.27
2018-12-17T10:55:57.582Z,40.80
2018-12-17T10:57:03.380Z,48.63
2018-12-17T10:58:08.935Z,48.43
2018-12-17T10:59:14.358Z,38.50
2018-12-17T11:00:25.210Z,43.93
2018-12-17T11:01:35.907Z,51.43
2018-12-17T11:02:41.527Z,48.47
2018-12-17T11:03:55.507Z,45.20
2018-12-17T11:05:17.594Z,43.35
2018-12-17T11:06:23.435Z,44.23
2018-12-17T11:07:28.864Z,45.70
2018-12-17T11:08:34.294Z,50.80
2018-12-17T11:09:40.062Z,56.00
2018-12-17T11:10:45.488Z,49.63
2018-12-17T11:11:51.073Z,46.20
2018-12-17T11:12:56.783Z,44.87
2018-12-17T11:14:02.517Z,47.03
2018-12-17T11:15:11.022Z,43.40
2018-12-17T11:16:16.523Z,48.30
2018-12-17T11:17:21.980Z,50.20
2018-12-17T11:18:27.420Z,47.33
2018-12-17T11:19:32.832Z,52.40
2018-12-17T11:20:38.346Z,49.35
2018-12-17T11:21:43.767Z,58.60
2018-12-17T11:22:49.181Z,53.85
2018-12-17T11:23:54.700Z,60.83
2018-12-17T11:25:00.099Z,55.12
2018-12-17T11:26:05.556Z,49.88
2018-12-17T11:27:11.122Z,53.37
2018-12-17T11:28:16.666Z,49.93
2018-12-17T11:29:22.195Z,61.77
2018-12-17T11:30:27.753Z,55.03
2018-12-17T11:31:33.247Z,56.18
2018-12-17T11:33:59.462Z,50.78
2018-12-17T11:35:05.078Z,61.77
2018-12-17T11:36:10.519Z,55.17
2018-12-17T11:37:16.058Z,60.73
2018-12-17T11:38:21.635Z,67.43
2018-12-17T11:39:27.050Z,64.50
2018-12-17T11:40:32.648Z,65.63
2018-12-17T11:41:38.083Z,68.40
2018-12-17T11:42:43.723Z,58.17
2018-12-17T11:43:49.277Z,66.70
2018-12-17T11:44:54.863Z,69.57
2018-12-17T11:47:18.647Z,74.07
2018-12-17T11:48:24.132Z,71.50
2018-12-17T11:49:29.717Z,79.40
2018-12-17T11:50:35.218Z,72.30
2018-12-17T11:51:40.650Z,79.00
2018-12-17T11:52:46.091Z,77.20
2018-12-17T11:53:51.981Z,66.47
2018-12-17T11:54:57.514Z,70.20
2018-12-17T11:56:03.171Z,69.27
2018-12-17T11:58:17.194Z,79.77
2018-12-17T11:59:22.757Z,65.57
2018-12-17T12:00:28.814Z,67.47
2018-12-17T12:01:34.331Z,83.40
2018-12-17T12:02:39.786Z,67.90
2018-12-17T12:03:45.370Z,75.47
2018-12-17T12:04:50.874Z,64.77
2018-12-17T12:05:56.291Z,74.33
2018-12-17T12:07:01.826Z,80.03
2018-12-17T12:08:07.562Z,63.67
2018-12-17T12:09:15.091Z,68.43
2018-12-17T12:10:20.556Z,72.13
2018-12-17T12:11:26.016Z,66.97
2018-12-17T12:12:31.515Z,67.87
2018-12-17T12:13:37.014Z,75.93
2018-12-17T12:14:42.707Z,64.47
2018-12-17T12:15:48.136Z,75.47
2018-12-17T12:16:53.579Z,72.83
2018-12-17T12:17:59.083Z,66.00
2018-12-17T12:19:04.555Z,70.40
2018-12-17T12:20:10.932Z,70.80
2018-12-17T12:21:16.481Z,61.23
2018-12-17T12:22:21.994Z,71.37
2018-12-17T12:23:27.512Z,75.93
2018-12-17T12:24:32.998Z,81.40
2018-12-17T12:25:38.930Z,61.97
2018-12-17T12:26:44.414Z,57.87
2018-12-17T12:27:49.996Z,66.00
2018-12-17T12:28:55.390Z,65.27
2018-12-17T12:30:01.068Z,65.50
2018-12-17T12:31:06.498Z,64.33
2018-12-17T12:32:12.342Z,56.90
2018-12-17T12:33:17.897Z,65.70
2018-12-17T12:34:23.290Z,61.47
2018-12-17T12:35:29.220Z,58.90
2018-12-17T12:36:34.617Z,64.10
2018-12-17T12:37:40.252Z,59.03
2018-12-17T12:38:45.778Z,58.20
2018-12-17T12:39:51.369Z,61.70
2018-12-17T12:40:56.767Z,55.57
2018-12-17T12:42:02.245Z,63.40
2018-12-17T12:43:07.990Z,61.43
2018-12-17T12:44:13.439Z,64.77
2018-12-17T12:45:18.995Z,53.73
2018-12-17T12:46:24.523Z,55.60
2018-12-17T12:47:30.373Z,56.80
2018-12-17T12:48:35.851Z,54.47
2018-12-17T12:49:41.279Z,51.97
2018-12-17T12:50:46.790Z,53.33
2018-12-17T12:51:52.783Z,57.47
2018-12-17T12:52:58.961Z,60.30
2018-12-17T12:54:04.583Z,47.37
2018-12-17T12:55:10.373Z,55.30
2018-12-17T12:56:16.078Z,54.53
2018-12-17T12:57:21.567Z,57.37
2018-12-17T12:58:27.324Z,54.80
2018-12-17T12:59:32.873Z,58.50
2018-12-17T13:00:38.393Z,52.27
2018-12-17T13:01:43.792Z,63.73
2018-12-17T13:02:49.196Z,58.70
2018-12-17T13:03:55.549Z,64.83
2018-12-17T13:05:00.974Z,53.10
2018-12-17T13:06:06.457Z,57.17
2018-12-17T13:07:11.942Z,60.57
2018-12-17T13:08:17.404Z,56.20
2018-12-17T13:09:23.146Z,55.73
2018-12-17T13:10:28.596Z,59.30
2018-12-17T13:11:34.164Z,58.03
2018-12-17T13:12:39.920Z,55.87
2018-12-17T13:13:45.414Z,60.77
2018-12-17T13:14:50.854Z,58.40
2018-12-17T13:15:56.430Z,59.47
2018-12-17T13:17:06.087Z,56.83
2018-12-17T13:18:11.507Z,53.20
2018-12-17T13:19:17.117Z,55.15
2018-12-17T13:20:22.696Z,59.73
2018-12-17T13:21:28.090Z,54.90
2018-12-17T13:22:33.581Z,67.87
2018-12-17T13:23:39.121Z,64.20
2018-12-17T13:24:44.559Z,66.67
2018-12-17T13:25:50.366Z,58.40
2018-12-17T13:26:55.803Z,54.30
2018-12-17T13:28:01.775Z,57.33
2018-12-17T13:29:07.282Z,61.60
2018-12-17T13:30:13.500Z,58.87
2018-12-17T13:31:18.966Z,57.30
2018-12-17T13:32:24.431Z,64.57
2018-12-17T13:33:30.224Z,56.93
2018-12-17T13:34:35.827Z,59.93
2018-12-17T13:35:41.262Z,59.87
2018-12-17T13:36:46.823Z,67.27
2018-12-17T13:37:52.481Z,50.83
2018-12-17T13:38:58.032Z,52.90
2018-12-17T13:40:03.793Z,53.40
2018-12-17T13:41:09.306Z,57.73
2018-12-17T13:42:14.961Z,56.17
2018-12-17T13:43:20.458Z,63.57
2018-12-17T13:44:26.087Z,64.87
2018-12-17T13:45:31.505Z,60.83
2018-12-17T13:46:36.996Z,57.60
2018-12-17T13:47:42.497Z,57.33
2018-12-17T13:48:48.094Z,56.87
2018-12-17T13:49:53.563Z,53.77
2018-12-17T13:52:30.750Z,55.37
2018-12-17T13:53:37.215Z,52.37
2018-12-17T13:54:42.615Z,57.50
2018-12-17T13:55:48.181Z,58.27
2018-12-17T13:56:53.655Z,61.60
2018-12-17T13:57:59.082Z,56.30
2018-12-17T13:59:04.523Z,62.87